Flight Track Log - Related Links

Times and Time Zones

All times are in EDT time to prevent confusion due to time zone crossing. See the N264CA flight status page for this flight to view local times or setup timezone preferences in your user account.

Time Position Orientation Groundspeed Altitude Reporting Facility
EDT Latitude Longitude Course Direction KTS MPH feet Rate Location/Type
Mon 07:47:15 PM 36.6941 -119.6554 309° West  Level FlightAware Approximate
Mon 07:47:52 PM 36.7678 -119.7706 140° Southeast 200 230 4,700  Level Oakland Center
Mon 07:48:52 PM 36.7258 -119.7272 145° Southeast 208 239 7,000 2,200 Climbing Oakland Center
Mon 07:49:52 PM 36.6878 -119.6942 144° Southeast 197 227 9,100 1,966 Climbing Oakland Center
Mon 07:50:51 PM 36.6372 -119.6483 144° Southeast 202 232 10,900 1,815 Climbing Oakland Center
Mon 07:51:51 PM 36.5867 -119.6028 146° Southeast 217 250 12,700 1,700 Climbing Oakland Center
Mon 07:52:51 PM 36.5297 -119.5547 144° Southeast 228 262 14,300 1,700 Climbing Oakland Center
Mon 07:53:51 PM 36.4728 -119.5042 146° Southeast 241 277 16,100 1,650 Climbing Oakland Center
Mon 07:54:51 PM 36.4158 -119.4561 145° Southeast 247 284 17,600 1,362 Climbing Oakland Center
Mon 07:57:18 PM 36.2636 -119.3228 145° Southeast 267 307 20,800 1,246 Climbing Los Angeles Center
Mon 07:58:18 PM 36.2006 -119.2686 144° Southeast 274 315 21,900 1,100 Climbing Los Angeles Center
Mon 07:59:18 PM 36.1372 -119.2122 145° Southeast 274 315 23,000 1,050 Climbing Los Angeles Center
Mon 08:00:18 PM 36.0719 -119.1558 147° Southeast 279 321 24,000 496 Climbing Los Angeles Center
Mon 08:01:19 PM 35.9983 -119.0964 143° Southeast 292 336 24,000  Level Los Angeles Center
Mon 08:02:18 PM 35.9228 -119.0269 162° South 320 368 24,000  Level Los Angeles Center
Mon 08:03:18 PM 35.8339 -118.9906 164° South 332 382 24,000 200 Level Los Angeles Center
Mon 08:04:18 PM 35.7450 -118.9592 164° South 337 388 24,400 450 Climbing Los Angeles Center
Mon 08:05:18 PM 35.6581 -118.9281 163° South 337 388 24,900 500 Climbing Los Angeles Center
Mon 08:06:18 PM 35.5692 -118.8944 164° South 337 388 25,400 500 Climbing Los Angeles Center
Mon 08:07:18 PM 35.4822 -118.8633 168° South 337 388 25,900 500 Climbing Los Angeles Center
Mon 08:08:18 PM 35.3908 -118.8397 166° South 337 388 26,400 500 Climbing Los Angeles Center
Mon 08:09:18 PM 35.3058 -118.8142 168° South 332 382 26,900 298 Climbing Los Angeles Center
Mon 08:10:19 PM 35.2147 -118.7908 167° South 332 382 27,000 50 Climbing Los Angeles Center
Mon 08:11:18 PM 35.1256 -118.7650 166° South 332 382 27,000  Level Los Angeles Center
Mon 08:12:18 PM 35.0322 -118.7367 167° South 337 388 27,000  Level Los Angeles Center
Mon 08:13:18 PM 34.9389 -118.7108 170° South 337 388 27,000  Level Los Angeles Center
Mon 08:14:18 PM 34.8433 -118.6903 168° South 343 395 27,000  Level Los Angeles Center
Mon 08:15:18 PM 34.7394 -118.6642 166° South 349 402 27,000  Level Los Angeles Center
Mon 08:16:18 PM 34.6439 -118.6361 166° South 354 407 27,000  Level Los Angeles Center
Mon 08:17:18 PM 34.5486 -118.6081 167° South 354 407 27,000 -200 Level Los Angeles Center
Mon 08:18:18 PM 34.4553 -118.5825 167° South 354 407 26,600 -450 Descending Los Angeles Center
Mon 08:19:18 PM 34.3556 -118.5544 167° South 354 407 26,100 -500 Descending Los Angeles Center
Mon 08:20:18 PM 34.2581 -118.5264 167° South 354 407 25,600 -500 Descending Los Angeles Center
Mon 08:21:18 PM 34.1583 -118.4986 167° South 359 413 25,100 -450 Descending Los Angeles Center
Mon 08:22:18 PM 34.0692 -118.4733 167° South 359 413 24,700 -500 Descending Los Angeles Center
Mon 08:23:18 PM 33.9717 -118.4456 185° South 359 413 24,100 -550 Descending Los Angeles Center
Mon 08:24:18 PM 33.8753 -118.4556 197° South 359 413 23,600 -450 Descending Los Angeles Center
Mon 08:25:18 PM 33.7786 -118.4903 195° South 353 406 23,200 -550 Descending Los Angeles Center
Mon 08:26:18 PM 33.6800 -118.5225 195° South 358 412 22,500 -750 Descending Los Angeles Center
Mon 08:27:18 PM 33.5856 -118.5522 168° South 358 412 21,700 -1,600 Descending Los Angeles Center
Mon 08:28:18 PM 33.4942 -118.5297 143° Southeast 337 388 19,300 -2,450 Descending Los Angeles Center
Mon 08:29:18 PM 33.4203 -118.4631 128° Southeast 320 368 16,800 -2,500 Descending Los Angeles Center
Mon 08:30:18 PM 33.3675 -118.3819 98° East 309 356 14,300 -2,450 Descending Los Angeles Center
Mon 08:31:18 PM 33.3547 -118.2797 98° East 280 322 11,900 -1,650 Descending Los Angeles Center
Mon 08:32:18 PM 33.3439 -118.1875 99° East 280 322 11,000 -750 Descending Los Angeles Center
Mon 08:33:18 PM 33.3328 -118.1025 99° East 274 315 10,400 -550 Descending Los Angeles Center
Mon 08:34:18 PM 33.3217 -118.0178 98° East 262 302 9,900 -600 Descending Los Angeles Center
Mon 08:35:18 PM 33.3106 -117.9256 98° East 256 295 9,200 -1,240 Descending Los Angeles Center
Mon 08:36:19 PM 33.3000 -117.8333 103° East 260 299 7,400 -2,016 Descending Southern California TRACON
Mon 08:37:20 PM 33.2833 -117.7500 90° East 251 289 5,100 -1,190 Descending Southern California TRACON
Mon 08:38:20 PM 33.2833 -117.6667 107° East 231 266 5,000 -50 Descending Southern California TRACON
Mon 08:39:20 PM 33.2667 -117.6000 103° East 234 269 5,000  Level Southern California TRACON
Mon 08:40:20 PM 33.2500 -117.5167 90° East 233 268 5,000  Level Southern California TRACON
Mon 08:41:20 PM 33.2500 -117.4500 103° East 234 269 5,000  Level Southern California TRACON
Mon 08:42:20 PM 33.2333 -117.3667 90° East 234 269 5,000  Level Southern California TRACON
Mon 08:43:21 PM 33.2333 -117.2833 90° East 240 276 5,000  Level Southern California TRACON
Mon 08:44:21 PM 33.2333 -117.2167 90° East 237 273 5,000 -100 Level Southern California TRACON
Mon 08:45:21 PM 33.2333 -117.1333 129° Southeast 221 254 4,800 -313 Descending Southern California TRACON
Mon 08:46:16 PM 33.2000 -117.0833 180° South 199 229 4,400 -595 Descending Southern California TRACON
Mon 08:47:22 PM 33.1500 -117.0833 270° West 200 230 3,600 -857 Descending Southern California TRACON
Mon 08:48:22 PM 33.1500 -117.1333 270° West 138 159 2,600 -800 Descending Southern California TRACON
Mon 08:49:22 PM 33.1500 -117.1667 270° West 113 130 2,000 -600 Descending Southern California TRACON

Login

Don't have an account? Register now (free) for customized features, flight alerts, and more!